Time;durP1;ratioP1;P1;durP2;ratioP2;P2;SDS_P1;SDS_P2;PMS_P1;PMS_P2;Temp;Humidity;BMP_temperature;BMP_pressure;BME280_temperature;BME280_humidity;BME280_pressure;Samples;Min_cycle;Max_cycle;Signal;HPM_P1;HPM_P2
2023/12/27 00:00:36;;;;;;;13.45;1.80;;;3.80;99.90;;;;;;5049664;28;20135;-64
2023/12/27 00:03:02;;;;;;;11.75;1.30;;;3.80;99.90;;;;;;5056437;28;20295;-65
2023/12/27 00:05:28;;;;;;;18.23;2.13;;;3.80;99.90;;;;;;5053030;28;20044;-65
2023/12/27 00:07:54;;;;;;;11.18;1.73;;;4.00;99.90;;;;;;5045361;28;20153;-64
2023/12/27 00:10:20;;;;;;;16.13;1.83;;;3.90;99.90;;;;;;5063524;28;20047;-65
2023/12/27 00:12:46;;;;;;;13.25;1.45;;;4.00;99.90;;;;;;5036461;28;20492;-64
2023/12/27 00:15:11;;;;;;;15.32;1.35;;;4.00;99.90;;;;;;5040135;28;20106;-65
2023/12/27 00:17:37;;;;;;;13.63;1.60;;;3.90;99.90;;;;;;5054999;28;20070;-65
2023/12/27 00:20:03;;;;;;;10.48;1.63;;;3.80;99.90;;;;;;5040535;28;20478;-65
2023/12/27 00:22:29;;;;;;;14.25;1.50;;;3.70;99.90;;;;;;5021880;28;20199;-65
2023/12/27 00:24:55;;;;;;;9.32;1.17;;;3.70;99.90;;;;;;5059613;28;20086;-65
2023/12/27 00:27:20;;;;;;;15.45;1.73;;;3.70;99.90;;;;;;5054935;28;20040;-66
2023/12/27 00:29:46;;;;;;;19.63;2.00;;;3.60;99.90;;;;;;5032820;28;20115;-65
2023/12/27 00:32:12;;;;;;;11.30;1.45;;;3.50;99.90;;;;;;5054775;28;20040;-65
2023/12/27 00:34:38;;;;;;;13.13;1.83;;;3.50;99.90;;;;;;5040900;28;20039;-64
2023/12/27 00:37:05;;;;;;;19.60;3.10;;;3.60;99.90;;;;;;5055999;28;20068;-65
2023/12/27 00:39:31;;;;;;;13.65;1.52;;;3.50;99.90;;;;;;5057699;28;20048;-65
2023/12/27 00:41:57;;;;;;;20.10;2.50;;;3.30;99.90;;;;;;5044586;28;20051;-65
2023/12/27 00:44:23;;;;;;;17.13;2.30;;;3.30;99.90;;;;;;5038894;28;20062;-64
2023/12/27 00:46:49;;;;;;;16.25;2.13;;;3.20;99.90;;;;;;5054961;28;20358;-65
2023/12/27 00:49:16;;;;;;;18.40;2.47;;;3.10;99.90;;;;;;5022633;28;20105;-64
2023/12/27 00:51:41;;;;;;;11.93;1.75;;;3.20;99.90;;;;;;5033746;28;20040;-65
2023/12/27 00:54:07;;;;;;;12.30;1.90;;;3.00;99.90;;;;;;5059226;28;20044;-65
2023/12/27 00:56:33;;;;;;;16.23;1.80;;;3.10;99.90;;;;;;5058341;28;20044;-65
2023/12/27 00:58:59;;;;;;;13.35;1.90;;;3.00;99.90;;;;;;5061472;28;20058;-65
2023/12/27 01:01:25;;;;;;;15.07;2.28;;;2.90;99.90;;;;;;5046722;28;20036;-64
2023/12/27 01:03:51;;;;;;;12.90;1.70;;;2.90;99.90;;;;;;5037554;28;20044;-65
2023/12/27 01:06:17;;;;;;;14.65;2.10;;;2.90;99.90;;;;;;5043318;28;20566;-65
2023/12/27 01:08:43;;;;;;;17.50;2.40;;;2.70;99.90;;;;;;5041693;28;20484;-65
2023/12/27 01:11:08;;;;;;;15.60;2.17;;;2.70;99.90;;;;;;5057955;28;20322;-64
2023/12/27 01:13:34;;;;;;;16.05;2.28;;;2.70;99.90;;;;;;5066922;28;20105;-64
2023/12/27 01:16:00;;;;;;;12.77;1.60;;;2.70;99.90;;;;;;5062938;28;20040;-65
2023/12/27 01:18:29;;;;;;;10.68;1.60;;;2.70;99.90;;;;;;5059000;28;20372;-65
2023/12/27 01:20:55;;;;;;;16.30;1.98;;;2.60;99.90;;;;;;5068430;28;20031;-64
2023/12/27 01:23:21;;;;;;;13.93;2.10;;;2.60;99.90;;;;;;5063605;28;20276;-65
2023/12/27 01:25:46;;;;;;;16.13;2.10;;;2.60;99.90;;;;;;5067191;28;20032;-64
2023/12/27 01:28:12;;;;;;;17.67;1.90;;;2.70;99.90;;;;;;5064449;28;20316;-65
2023/12/27 01:30:38;;;;;;;19.20;1.90;;;2.70;99.90;;;;;;5049742;28;20050;-65
2023/12/27 01:33:03;;;;;;;14.75;1.58;;;2.50;99.90;;;;;;5042543;28;20055;-64
2023/12/27 01:35:29;;;;;;;17.52;1.40;;;2.40;99.90;;;;;;5044586;28;20173;-65
2023/12/27 01:37:55;;;;;;;16.48;1.55;;;2.40;99.90;;;;;;5061926;28;20272;-66
2023/12/27 01:40:20;;;;;;;12.40;1.67;;;2.40;99.90;;;;;;5065130;28;20102;-65
2023/12/27 01:42:46;;;;;;;17.00;1.85;;;2.30;99.90;;;;;;5058038;28;20218;-64
2023/12/27 01:45:12;;;;;;;17.17;1.85;;;2.30;99.90;;;;;;5043452;28;20048;-64
2023/12/27 01:47:38;;;;;;;17.27;1.55;;;2.30;99.90;;;;;;5039400;28;20044;-64
2023/12/27 01:50:06;;;;;;;15.63;1.77;;;2.30;99.90;;;;;;5046504;28;20498;-64
2023/12/27 01:52:32;;;;;;;15.57;3.10;;;2.20;99.90;;;;;;5015864;28;20045;-64
2023/12/27 01:54:57;;;;;;;11.57;1.63;;;2.20;99.90;;;;;;5065849;28;20082;-64
2023/12/27 01:57:24;;;;;;;19.90;2.45;;;2.40;99.90;;;;;;5056130;28;20590;-64
2023/12/27 01:59:49;;;;;;;17.08;2.42;;;2.30;99.90;;;;;;5062760;28;20036;-65
2023/12/27 02:02:15;;;;;;;17.75;2.05;;;2.30;99.90;;;;;;5052270;28;20487;-65
2023/12/27 02:04:41;;;;;;;13.73;1.58;;;2.40;99.90;;;;;;5065374;28;20550;-64
2023/12/27 02:07:07;;;;;;;14.70;1.80;;;2.40;99.90;;;;;;5059388;28;20082;-65
2023/12/27 02:09:34;;;;;;;14.40;1.80;;;2.40;99.90;;;;;;5056189;28;20201;-64
2023/12/27 02:11:59;;;;;;;17.08;1.90;;;2.60;99.90;;;;;;5036638;28;20044;-65
2023/12/27 02:14:25;;;;;;;21.95;1.98;;;2.60;99.90;;;;;;5059394;28;20264;-64
2023/12/27 02:16:51;;;;;;;15.23;1.65;;;2.40;99.90;;;;;;5065250;28;20036;-65
2023/12/27 02:19:21;;;;;;;14.50;1.60;;;2.50;99.90;;;;;;5058311;28;20650;-65
2023/12/27 02:21:49;;;;;;;16.85;1.80;;;2.30;99.90;;;;;;5061168;28;20066;-65
2023/12/27 02:24:18;;;;;;;19.20;1.98;;;2.30;99.90;;;;;;5059600;28;20050;-65
2023/12/27 02:26:44;;;;;;;12.00;2.30;;;2.30;99.90;;;;;;5058622;28;20209;-64
2023/12/27 02:29:09;;;;;;;26.27;2.35;;;2.20;99.90;;;;;;5043421;28;20070;-65
2023/12/27 02:31:35;;;;;;;11.25;2.20;;;2.20;99.90;;;;;;5061580;28;20043;-64
2023/12/27 02:34:01;;;;;;;13.00;1.77;;;2.30;99.90;;;;;;5053834;28;20044;-65
2023/12/27 02:36:27;;;;;;;11.35;2.17;;;2.30;99.90;;;;;;5044585;28;20121;-64
2023/12/27 02:38:52;;;;;;;11.35;2.20;;;2.40;99.90;;;;;;5056380;28;21201;-64
2023/12/27 02:41:18;;;;;;;15.27;2.30;;;2.30;99.90;;;;;;5036484;28;20044;-64
2023/12/27 02:43:44;;;;;;;18.73;2.35;;;2.20;99.90;;;;;;5061718;28;20051;-64
2023/12/27 02:46:10;;;;;;;12.27;1.83;;;2.40;99.90;;;;;;5039568;28;20040;-65
2023/12/27 02:48:36;;;;;;;14.90;2.22;;;2.50;99.90;;;;;;5041518;28;20486;-64
2023/12/27 02:51:01;;;;;;;20.83;2.65;;;2.40;99.90;;;;;;5046453;28;20055;-65
2023/12/27 02:53:30;;;;;;;16.50;2.20;;;2.30;99.90;;;;;;5000070;28;20039;-65
2023/12/27 02:55:57;;;;;;;14.23;1.85;;;2.40;99.90;;;;;;5050419;28;20036;-65
2023/12/27 02:58:22;;;;;;;19.80;2.58;;;2.40;99.90;;;;;;5054511;28;20163;-64
2023/12/27 03:00:49;;;;;;;17.42;2.50;;;2.30;99.90;;;;;;5039642;28;20044;-66
2023/12/27 03:03:15;;;;;;;18.98;2.10;;;2.40;99.90;;;;;;5060762;28;20495;-64
2023/12/27 03:05:41;;;;;;;16.02;3.08;;;2.30;99.90;;;;;;5037736;28;20073;-65
2023/12/27 03:08:07;;;;;;;14.30;2.47;;;2.20;99.90;;;;;;5036871;28;20524;-64
2023/12/27 03:10:32;;;;;;;18.98;2.33;;;2.20;99.90;;;;;;5054565;28;20420;-64
2023/12/27 03:12:58;;;;;;;21.20;3.25;;;2.00;99.90;;;;;;5063048;28;20058;-65
2023/12/27 03:15:24;;;;;;;17.30;2.45;;;2.10;99.90;;;;;;5039910;28;20271;-65
2023/12/27 03:17:50;;;;;;;20.42;2.63;;;2.10;99.90;;;;;;5053564;28;20082;-64
2023/12/27 03:20:15;;;;;;;16.23;2.22;;;2.00;99.90;;;;;;5056785;28;20736;-64
2023/12/27 03:22:41;;;;;;;17.45;2.13;;;2.20;99.90;;;;;;5032699;28;20403;-64
2023/12/27 03:25:07;;;;;;;13.18;2.40;;;2.10;99.90;;;;;;5020613;28;20043;-64
2023/12/27 03:27:33;;;;;;;20.17;2.22;;;1.90;99.90;;;;;;5033481;28;20187;-64
2023/12/27 03:29:58;;;;;;;16.05;2.47;;;1.90;99.90;;;;;;5022439;28;20510;-64
2023/12/27 03:32:24;;;;;;;20.08;2.28;;;2.00;99.90;;;;;;5036563;28;20060;-64
2023/12/27 03:34:50;;;;;;;18.52;2.33;;;1.80;99.90;;;;;;5037750;28;20348;-64
2023/12/27 03:37:16;;;;;;;16.30;2.25;;;2.00;99.90;;;;;;5034182;28;20050;-64
2023/12/27 03:39:43;;;;;;;19.23;2.55;;;2.10;99.90;;;;;;5036085;28;20040;-64
2023/12/27 03:42:10;;;;;;;16.42;2.08;;;2.20;99.90;;;;;;5048950;28;20602;-64
2023/12/27 03:44:36;;;;;;;15.82;2.10;;;1.90;99.90;;;;;;5053982;28;20051;-64
2023/12/27 03:47:01;;;;;;;18.63;2.60;;;1.90;99.90;;;;;;5041024;28;20032;-65
2023/12/27 03:49:27;;;;;;;16.95;2.20;;;1.90;99.90;;;;;;5049835;28;20048;-64
2023/12/27 03:51:53;;;;;;;17.48;2.15;;;2.10;99.90;;;;;;5065898;28;20220;-64
2023/12/27 03:54:18;;;;;;;16.30;2.47;;;2.20;99.90;;;;;;5053781;28;20134;-64
2023/12/27 03:56:45;;;;;;;24.80;3.00;;;2.00;99.90;;;;;;5047065;28;20109;-64
2023/12/27 03:59:11;;;;;;;14.82;2.25;;;2.10;99.90;;;;;;5025605;28;20036;-64
2023/12/27 04:01:37;;;;;;;14.07;1.90;;;2.20;99.90;;;;;;5062691;28;20036;-64
2023/12/27 04:04:03;;;;;;;14.10;2.03;;;2.10;99.90;;;;;;5051478;28;20045;-64
2023/12/27 04:06:28;;;;;;;15.93;2.25;;;2.30;99.90;;;;;;5037253;28;20181;-65
2023/12/27 04:08:54;;;;;;;18.38;2.80;;;2.00;99.90;;;;;;5066163;28;20078;-64
2023/12/27 04:11:20;;;;;;;14.57;2.22;;;2.30;99.90;;;;;;5060930;28;20174;-64
2023/12/27 04:13:46;;;;;;;16.65;1.95;;;2.30;99.90;;;;;;5057054;28;20044;-64
2023/12/27 04:16:12;;;;;;;10.95;1.90;;;2.30;99.90;;;;;;5041409;28;20048;-65
2023/12/27 04:18:38;;;;;;;16.67;2.05;;;2.40;99.90;;;;;;5039466;28;20127;-64
2023/12/27 04:21:04;;;;;;;15.00;2.08;;;2.40;99.90;;;;;;5057737;28;20302;-64
2023/12/27 04:23:30;;;;;;;17.85;2.15;;;2.30;99.90;;;;;;5063723;28;20276;-64
2023/12/27 04:25:56;;;;;;;18.17;2.38;;;2.20;99.90;;;;;;5062263;28;20031;-64
2023/12/27 04:28:21;;;;;;;18.38;2.65;;;2.20;99.90;;;;;;5046422;28;20044;-64
2023/12/27 04:30:48;;;;;;;14.00;2.22;;;2.40;99.90;;;;;;5066251;28;20054;-64
2023/12/27 04:33:13;;;;;;;12.85;2.05;;;2.40;99.90;;;;;;5064639;28;20105;-64
2023/12/27 04:35:40;;;;;;;18.42;2.20;;;2.30;99.90;;;;;;5043674;28;20111;-64
2023/12/27 04:38:06;;;;;;;16.48;2.17;;;2.60;99.90;;;;;;5048836;28;20040;-64
2023/12/27 04:40:32;;;;;;;9.60;1.98;;;2.40;99.90;;;;;;5054424;28;20122;-64
2023/12/27 04:42:59;;;;;;;15.30;2.45;;;2.40;99.90;;;;;;5043469;28;20507;-64
2023/12/27 04:45:25;;;;;;;15.00;2.50;;;2.60;99.90;;;;;;5051089;28;20055;-64
2023/12/27 04:47:51;;;;;;;11.38;2.40;;;2.50;99.90;;;;;;5058645;28;20102;-64
2023/12/27 04:50:17;;;;;;;15.98;2.83;;;2.70;99.90;;;;;;5017777;28;20032;-64
2023/12/27 04:52:43;;;;;;;18.42;2.88;;;2.50;99.90;;;;;;5061340;28;20047;-64
2023/12/27 04:55:09;;;;;;;20.70;3.05;;;2.70;99.90;;;;;;5052363;28;20189;-64
2023/12/27 04:57:35;;;;;;;20.77;2.72;;;2.50;99.90;;;;;;5045578;28;20067;-65
2023/12/27 05:00:00;;;;;;;15.50;2.92;;;2.40;99.90;;;;;;5034077;28;20155;-65
2023/12/27 05:02:26;;;;;;;16.40;2.92;;;2.60;99.90;;;;;;5059951;28;20583;-65
2023/12/27 05:04:52;;;;;;;17.33;2.80;;;2.40;99.90;;;;;;5036136;28;20072;-65
2023/12/27 05:07:18;;;;;;;16.00;2.97;;;2.60;99.90;;;;;;5051320;28;20131;-66
2023/12/27 05:09:44;;;;;;;20.05;2.80;;;2.40;99.90;;;;;;5037802;28;20235;-65
2023/12/27 05:12:10;;;;;;;19.98;3.40;;;2.50;99.90;;;;;;5033236;28;20106;-65
2023/12/27 05:14:35;;;;;;;17.55;2.70;;;2.60;99.90;;;;;;5046144;28;20039;-65
2023/12/27 05:17:01;;;;;;;14.45;2.40;;;2.70;99.90;;;;;;5056618;28;20402;-65
2023/12/27 05:19:27;;;;;;;21.83;3.22;;;2.40;99.90;;;;;;5063571;28;20044;-67
2023/12/27 05:21:52;;;;;;;22.17;3.17;;;2.40;99.90;;;;;;5055351;28;20687;-65
2023/12/27 05:24:18;;;;;;;26.67;3.42;;;2.40;99.90;;;;;;5064745;28;20295;-65
2023/12/27 05:26:44;;;;;;;26.02;3.85;;;2.50;99.90;;;;;;5042374;28;20772;-65
2023/12/27 05:29:10;;;;;;;22.27;3.22;;;2.50;99.90;;;;;;5057841;28;20028;-65
2023/12/27 05:31:36;;;;;;;23.27;2.85;;;2.70;99.90;;;;;;5035734;28;20044;-66
2023/12/27 05:34:02;;;;;;;22.40;3.20;;;2.60;99.90;;;;;;5018289;28;20071;-67
2023/12/27 05:36:28;;;;;;;15.32;3.33;;;2.80;99.90;;;;;;5057251;28;20054;-64
2023/12/27 05:38:54;;;;;;;20.52;3.63;;;2.40;99.90;;;;;;5052924;28;20048;-64
2023/12/27 05:41:24;;;;;;;10.80;2.63;;;2.70;99.90;;;;;;5023118;28;20044;-64
2023/12/27 05:43:50;;;;;;;20.65;3.33;;;2.50;99.90;;;;;;5031863;28;20071;-64
2023/12/27 05:46:16;;;;;;;19.33;3.08;;;2.50;99.90;;;;;;5037463;28;20163;-64
2023/12/27 05:48:42;;;;;;;22.88;2.92;;;2.50;99.90;;;;;;5032260;28;20477;-64
2023/12/27 05:51:08;;;;;;;22.63;3.33;;;2.40;99.90;;;;;;5062316;28;20635;-64
2023/12/27 05:53:34;;;;;;;23.65;3.08;;;2.70;99.90;;;;;;5044083;28;20370;-64
2023/12/27 05:56:00;;;;;;;19.63;3.53;;;2.60;99.90;;;;;;5021143;28;20078;-64
2023/12/27 05:58:26;;;;;;;23.02;3.30;;;2.70;99.90;;;;;;5038650;28;20127;-64
2023/12/27 06:00:52;;;;;;;22.73;3.20;;;2.60;99.90;;;;;;5037242;28;20044;-64
2023/12/27 06:03:17;;;;;;;13.63;2.97;;;2.70;99.90;;;;;;5040575;28;20489;-64
2023/12/27 06:05:43;;;;;;;18.67;3.55;;;2.80;99.90;;;;;;5040701;28;20052;-64
2023/12/27 06:08:09;;;;;;;18.45;3.25;;;2.70;99.90;;;;;;5054666;28;20079;-66
2023/12/27 06:10:36;;;;;;;15.75;3.20;;;2.70;99.90;;;;;;5017583;28;20047;-65
2023/12/27 06:13:03;;;;;;;19.65;3.78;;;2.90;99.90;;;;;;5045076;28;20048;-64
2023/12/27 06:15:29;;;;;;;20.98;3.67;;;2.60;99.90;;;;;;5058214;28;20044;-64
2023/12/27 06:17:55;;;;;;;18.25;3.60;;;2.80;99.90;;;;;;5043609;28;20070;-64
2023/12/27 06:20:20;;;;;;;14.80;3.92;;;2.70;99.90;;;;;;4991597;28;20133;-64
2023/12/27 06:22:46;;;;;;;19.95;3.80;;;2.90;99.90;;;;;;5058817;28;20152;-64
2023/12/27 06:25:12;;;;;;;20.45;4.18;;;2.80;99.90;;;;;;5057673;28;20036;-64
2023/12/27 06:27:39;;;;;;;17.38;4.35;;;2.70;99.90;;;;;;5021155;28;20040;-64
2023/12/27 06:30:08;;;;;;;12.43;4.18;;;3.00;99.90;;;;;;5018716;28;20040;-65
2023/12/27 06:32:34;;;;;;;23.85;5.43;;;2.90;99.90;;;;;;5062434;28;20047;-64
2023/12/27 06:34:59;;;;;;;23.50;5.53;;;3.10;99.90;;;;;;5040763;28;20336;-64
2023/12/27 06:37:25;;;;;;;16.50;5.40;;;2.80;99.90;;;;;;5060146;28;20044;-64
2023/12/27 06:39:51;;;;;;;22.08;5.78;;;2.90;99.90;;;;;;5023157;28;20098;-64
2023/12/27 06:42:16;;;;;;;27.40;6.00;;;3.00;99.90;;;;;;5061883;28;20040;-64
2023/12/27 06:44:42;;;;;;;21.08;5.30;;;2.90;99.90;;;;;;5060137;28;20044;-64
2023/12/27 06:47:08;;;;;;;24.52;6.10;;;3.10;99.90;;;;;;5042196;28;20561;-64
2023/12/27 06:49:34;;;;;;;21.30;6.63;;;3.20;99.90;;;;;;5037398;28;20051;-64
2023/12/27 06:51:59;;;;;;;19.80;5.50;;;3.00;99.90;;;;;;5024067;28;20048;-64
2023/12/27 06:54:25;;;;;;;19.30;6.00;;;3.10;99.90;;;;;;5057149;28;20040;-65
2023/12/27 06:56:51;;;;;;;24.35;6.20;;;2.90;99.90;;;;;;5044674;28;20129;-65
2023/12/27 06:59:17;;;;;;;18.25;4.95;;;3.10;99.90;;;;;;5042316;28;20036;-64
2023/12/27 07:01:43;;;;;;;15.27;4.45;;;3.30;99.90;;;;;;5018322;28;20381;-65
2023/12/27 07:04:09;;;;;;;19.25;4.75;;;3.10;99.90;;;;;;5056145;28;20119;-64
2023/12/27 07:06:35;;;;;;;19.92;5.13;;;3.40;99.90;;;;;;5060158;28;20064;-64
2023/12/27 07:09:02;;;;;;;18.60;4.93;;;3.10;99.90;;;;;;5066269;28;20043;-65
2023/12/27 07:11:28;;;;;;;21.55;4.78;;;3.20;99.90;;;;;;5060941;28;20371;-64
2023/12/27 07:13:54;;;;;;;15.35;4.28;;;3.20;99.90;;;;;;5064123;28;20124;-64
2023/12/27 07:16:20;;;;;;;21.42;4.25;;;3.20;99.90;;;;;;5060083;28;20115;-65
2023/12/27 07:18:46;;;;;;;14.23;4.05;;;3.60;99.90;;;;;;5053334;28;20228;-64
2023/12/27 07:21:12;;;;;;;21.20;4.28;;;3.60;99.90;;;;;;5040417;28;20040;-65
2023/12/27 07:23:38;;;;;;;18.77;3.60;;;3.50;99.90;;;;;;5060887;28;20064;-64
2023/12/27 07:26:04;;;;;;;20.60;3.55;;;3.60;99.90;;;;;;5054993;28;20653;-64
2023/12/27 07:28:30;;;;;;;17.55;4.18;;;3.70;99.90;;;;;;5040749;28;20062;-64
2023/12/27 07:30:57;;;;;;;19.02;4.13;;;3.80;99.90;;;;;;5063303;28;20036;-65
2023/12/27 07:33:23;;;;;;;14.48;3.38;;;3.50;99.90;;;;;;5046305;28;20079;-64
2023/12/27 07:35:49;;;;;;;14.82;3.88;;;3.70;99.90;;;;;;5055868;28;20147;-65
2023/12/27 07:38:15;;;;;;;13.90;3.10;;;3.70;99.90;;;;;;5018148;28;20129;-64
2023/12/27 07:40:41;;;;;;;21.00;3.50;;;3.50;99.90;;;;;;5043777;28;20298;-64
2023/12/27 07:43:09;;;;;;;15.45;3.30;;;3.90;99.90;;;;;;5057073;28;20102;-64
2023/12/27 07:45:35;;;;;;;16.10;2.83;;;3.60;99.90;;;;;;5055685;28;20040;-65
2023/12/27 07:48:01;;;;;;;15.32;3.25;;;3.80;99.90;;;;;;5019869;28;20063;-65
2023/12/27 07:50:26;;;;;;;21.05;2.85;;;3.70;99.90;;;;;;5038541;28;20385;-64
2023/12/27 07:52:52;;;;;;;12.77;2.53;;;4.00;99.90;;;;;;5041702;28;20434;-65
2023/12/27 07:55:18;;;;;;;18.20;2.70;;;3.90;99.90;;;;;;5037314;28;20127;-65
2023/12/27 07:57:45;;;;;;;18.05;2.92;;;3.90;99.90;;;;;;5057526;28;20300;-65
2023/12/27 08:00:15;;;;;;;15.68;2.60;;;4.20;99.90;;;;;;5039474;28;20483;-66
2023/12/27 08:02:41;;;;;;;10.55;2.00;;;4.00;99.90;;;;;;5039116;28;20170;-66
2023/12/27 08:05:07;;;;;;;9.65;2.40;;;4.00;99.90;;;;;;5056266;28;20132;-65
2023/12/27 08:07:33;;;;;;;9.13;1.52;;;4.10;99.90;;;;;;5054668;28;20052;-67
2023/12/27 08:09:59;;;;;;;12.23;2.17;;;4.20;99.90;;;;;;5037523;28;20482;-65
2023/12/27 08:12:24;;;;;;;11.43;2.22;;;4.50;99.90;;;;;;5069445;28;20821;-66
2023/12/27 08:14:50;;;;;;;15.90;2.10;;;4.40;99.90;;;;;;5052464;28;20632;-65
2023/12/27 08:17:16;;;;;;;19.95;3.10;;;4.50;99.90;;;;;;5070050;28;20047;-65
2023/12/27 08:19:42;;;;;;;13.05;2.22;;;4.30;99.90;;;;;;5050563;28;20287;-66
2023/12/27 08:22:07;;;;;;;14.40;2.15;;;4.40;99.90;;;;;;5070019;28;20391;-66
2023/12/27 08:24:33;;;;;;;15.68;2.10;;;4.60;99.90;;;;;;5053136;28;20052;-66
2023/12/27 08:26:59;;;;;;;11.60;1.83;;;4.60;99.90;;;;;;5051564;28;20046;-66
2023/12/27 08:29:25;;;;;;;13.70;2.00;;;4.70;99.90;;;;;;5042493;28;20044;-67
2023/12/27 08:31:51;;;;;;;12.18;1.60;;;4.90;99.90;;;;;;5017261;28;21174;-66
2023/12/27 08:34:16;;;;;;;16.50;2.15;;;4.90;99.90;;;;;;5033077;28;20074;-66
2023/12/27 08:36:45;;;;;;;12.82;1.40;;;4.80;99.90;;;;;;5049112;28;20052;-65
2023/12/27 08:39:11;;;;;;;11.18;1.60;;;4.90;99.90;;;;;;5063011;28;20430;-66
2023/12/27 08:41:40;;;;;;;12.48;1.58;;;5.20;99.90;;;;;;5070303;28;20059;-66
2023/12/27 08:44:05;;;;;;;11.00;1.58;;;5.10;99.90;;;;;;5069761;28;20127;-66
2023/12/27 08:46:31;;;;;;;11.85;1.55;;;5.30;99.90;;;;;;5069437;28;20297;-66
2023/12/27 08:48:57;;;;;;;10.95;1.52;;;5.10;99.90;;;;;;5051392;28;20093;-66
2023/12/27 08:51:22;;;;;;;20.60;2.00;;;5.30;99.90;;;;;;5052667;28;20032;-65
2023/12/27 08:53:48;;;;;;;10.93;1.50;;;5.30;99.90;;;;;;5086965;28;20050;-67
2023/12/27 08:56:14;;;;;;;14.27;2.25;;;5.30;99.90;;;;;;5053745;28;20040;-67
2023/12/27 08:58:40;;;;;;;20.35;1.92;;;5.30;99.90;;;;;;5067428;28;20052;-67
2023/12/27 09:01:07;;;;;;;9.55;1.52;;;5.40;99.90;;;;;;5053470;28;20044;-67
2023/12/27 09:03:33;;;;;;;11.27;1.50;;;5.50;99.90;;;;;;5053917;28;20459;-67
2023/12/27 09:05:59;;;;;;;9.52;1.05;;;5.30;99.90;;;;;;5061272;28;20052;-67
2023/12/27 09:08:25;;;;;;;11.38;1.20;;;5.40;99.90;;;;;;5053637;28;20549;-66
2023/12/27 09:10:51;;;;;;;8.13;1.02;;;5.60;99.90;;;;;;5053579;28;20047;-67
2023/12/27 09:13:17;;;;;;;12.60;1.27;;;5.70;99.90;;;;;;5070097;28;20048;-67
2023/12/27 09:15:42;;;;;;;12.77;0.90;;;5.70;99.90;;;;;;5070029;28;20336;-67
2023/12/27 09:18:08;;;;;;;11.93;1.20;;;5.60;99.90;;;;;;5067965;28;20082;-67
2023/12/27 09:20:35;;;;;;;11.02;1.30;;;5.60;99.90;;;;;;5049274;28;20054;-67
2023/12/27 09:23:00;;;;;;;10.10;0.93;;;5.70;99.90;;;;;;5050559;28;20103;-67
2023/12/27 09:25:26;;;;;;;7.63;0.98;;;5.60;99.90;;;;;;5052053;28;20127;-68
2023/12/27 09:27:52;;;;;;;13.30;1.40;;;5.70;99.90;;;;;;5053084;28;20589;-67
2023/12/27 09:30:18;;;;;;;14.00;1.38;;;5.70;99.90;;;;;;5054499;28;20047;-67
2023/12/27 09:32:43;;;;;;;16.42;1.85;;;5.70;99.90;;;;;;5056790;28;20104;-67
2023/12/27 09:35:09;;;;;;;18.05;1.80;;;5.70;99.90;;;;;;5072166;28;20051;-68
2023/12/27 09:37:35;;;;;;;15.02;1.75;;;5.80;99.90;;;;;;5072831;28;20389;-67
2023/12/27 09:40:03;;;;;;;17.58;2.20;;;5.80;99.90;;;;;;5057876;28;20297;-67
2023/12/27 09:42:32;;;;;;;18.58;2.15;;;5.70;99.90;;;;;;5053323;28;20203;-67
2023/12/27 09:45:00;;;;;;;17.52;2.03;;;5.80;99.90;;;;;;5036718;28;20060;-67
2023/12/27 09:47:28;;;;;;;14.25;1.92;;;5.80;99.90;;;;;;5054411;28;20040;-67
2023/12/27 09:49:56;;;;;;;12.38;1.77;;;5.80;99.90;;;;;;5067168;28;20618;-66
2023/12/27 09:52:23;;;;;;;17.63;2.28;;;5.90;99.90;;;;;;5073260;28;20051;-66
2023/12/27 09:54:49;;;;;;;17.77;3.10;;;5.90;99.90;;;;;;5073677;28;20117;-67
2023/12/27 09:57:16;;;;;;;18.52;2.25;;;5.90;99.90;;;;;;5052720;28;20040;-67
2023/12/27 09:59:46;;;;;;;13.48;1.75;;;5.90;99.90;;;;;;5054357;28;20048;-67
2023/12/27 10:02:19;;;;;;;8.77;0.95;;;5.90;99.90;;;;;;5053892;28;20394;-67
2023/12/27 10:04:54;;;;;;;12.00;2.30;;;6.00;99.90;;;;;;5053257;28;20482;-67
2023/12/27 10:07:23;;;;;;;12.68;1.60;;;6.00;99.90;;;;;;5052200;28;20053;-68
2023/12/27 10:09:50;;;;;;;21.55;3.63;;;6.00;99.90;;;;;;5043056;28;20514;-67
2023/12/27 10:12:16;;;;;;;14.18;1.85;;;5.90;99.90;;;;;;5053297;28;20525;-67
2023/12/27 10:14:43;;;;;;;16.98;1.67;;;6.00;99.90;;;;;;5053259;28;20525;-68
2023/12/27 10:17:09;;;;;;;14.68;1.92;;;6.00;99.90;;;;;;5040399;28;20091;-66
2023/12/27 10:19:40;;;;;;;11.32;1.20;;;6.00;99.90;;;;;;5054100;28;20131;-67
2023/12/27 10:22:07;;;;;;;13.00;1.45;;;5.90;99.90;;;;;;5053259;28;20079;-67
2023/12/27 10:24:37;;;;;;;9.77;1.77;;;6.00;99.90;;;;;;5052036;28;20434;-67
2023/12/27 10:27:03;;;;;;;11.30;2.72;;;6.00;99.90;;;;;;5054005;28;20051;-68
2023/12/27 10:29:33;;;;;;;19.20;3.53;;;5.90;99.90;;;;;;5052735;28;20434;-67
2023/12/27 10:32:00;;;;;;;15.43;2.88;;;6.00;99.90;;;;;;5036764;28;20040;-67
2023/12/27 10:34:27;;;;;;;13.80;2.22;;;6.00;99.90;;;;;;5052863;28;20040;-67
2023/12/27 10:36:55;;;;;;;15.95;2.72;;;6.10;99.90;;;;;;5019358;28;20048;-67
2023/12/27 10:39:20;;;;;;;20.27;2.63;;;6.20;99.90;;;;;;5022768;28;20051;-67
2023/12/27 10:41:46;;;;;;;15.43;3.33;;;6.20;99.90;;;;;;5071550;28;20040;-66
2023/12/27 10:44:17;;;;;;;21.05;4.47;;;6.20;99.90;;;;;;5070421;28;20097;-66
2023/12/27 10:46:43;;;;;;;16.65;4.18;;;6.30;99.90;;;;;;5055802;28;20040;-68
2023/12/27 10:49:12;;;;;;;10.77;2.75;;;6.30;99.90;;;;;;5052027;28;20243;-67
2023/12/27 10:51:39;;;;;;;15.07;3.40;;;6.40;99.90;;;;;;5052420;28;20036;-67
2023/12/27 10:54:05;;;;;;;19.20;4.20;;;6.40;99.90;;;;;;5052721;28;20055;-66
2023/12/27 10:56:41;;;;;;;20.38;3.97;;;6.50;99.90;;;;;;5044315;28;20048;-68
2023/12/27 10:59:08;;;;;;;17.95;3.20;;;6.50;99.90;;;;;;5052101;28;20128;-68
2023/12/27 11:01:43;;;;;;;11.05;2.33;;;6.50;99.90;;;;;;5051811;28;20114;-66
2023/12/27 11:04:11;;;;;;;13.48;2.20;;;6.50;99.90;;;;;;5051105;28;20052;-67
2023/12/27 11:06:38;;;;;;;13.45;1.58;;;6.60;99.90;;;;;;5049137;28;20294;-66
2023/12/27 11:09:09;;;;;;;12.20;2.20;;;6.50;99.90;;;;;;5071148;28;20514;-67
2023/12/27 11:11:38;;;;;;;11.52;2.28;;;6.40;99.90;;;;;;5071166;28;20048;-67
2023/12/27 11:14:05;;;;;;;10.45;2.83;;;6.50;99.90;;;;;;5071375;28;20088;-66
2023/12/27 11:16:39;;;;;;;11.52;2.08;;;6.50;99.90;;;;;;5068987;28;20063;-66
2023/12/27 11:19:06;;;;;;;13.80;2.83;;;6.40;99.90;;;;;;5054675;28;20051;-67
2023/12/27 11:21:36;;;;;;;9.45;2.10;;;6.50;99.90;;;;;;5071494;28;20094;-67
2023/12/27 11:24:04;;;;;;;14.63;2.88;;;6.60;99.90;;;;;;5071027;28;20305;-68
2023/12/27 11:26:36;;;;;;;13.82;2.80;;;6.60;99.90;;;;;;5068580;28;20071;-66
2023/12/27 11:29:10;;;;;;;15.05;3.97;;;6.60;99.90;;;;;;5071239;28;20466;-67
2023/12/27 11:31:38;;;;;;;19.33;5.13;;;6.60;99.90;;;;;;5072591;28;20044;-68
2023/12/27 11:34:04;;;;;;;16.17;4.47;;;6.60;99.90;;;;;;5071250;28;20112;-67
2023/12/27 11:36:30;;;;;;;14.55;4.53;;;6.60;99.90;;;;;;5051437;28;20040;-67
2023/12/27 11:38:56;;;;;;;12.70;3.80;;;6.70;99.90;;;;;;5071257;28;20094;-67
2023/12/27 11:41:22;;;;;;;19.98;6.18;;;6.70;99.90;;;;;;5053800;28;20047;-67
2023/12/27 11:43:52;;;;;;;17.85;4.60;;;6.70;99.90;;;;;;5052352;28;20044;-67
2023/12/27 11:46:28;;;;;;;16.02;5.55;;;6.70;99.90;;;;;;5041715;28;20324;-67
2023/12/27 11:48:54;;;;;;;20.40;6.20;;;6.70;99.90;;;;;;5050720;28;20554;-66
2023/12/27 11:51:34;;;;;;;23.25;7.82;;;6.70;99.90;;;;;;5050718;28;20040;-66
2023/12/27 11:54:06;;;;;;;20.83;7.32;;;6.60;99.90;;;;;;5021574;28;20489;-67
2023/12/27 11:56:34;;;;;;;22.45;7.13;;;6.70;99.90;;;;;;5067725;28;20066;-67
2023/12/27 11:59:01;;;;;;;20.15;6.60;;;6.80;99.90;;;;;;5053136;28;20043;-68
2023/12/27 12:01:31;;;;;;;24.00;7.45;;;6.70;99.90;;;;;;5072984;28;20043;-67
2023/12/27 12:04:38;;;;;;;23.05;6.50;;;6.70;99.90;;;;;;5052116;28;20512;-67
2023/12/27 12:07:16;;;;;;;12.15;4.47;;;6.70;99.90;;;;;;5052626;28;20326;-67
2023/12/27 12:09:46;;;;;;;15.73;6.45;;;6.70;99.90;;;;;;5051134;28;20906;-67
2023/12/27 12:12:21;;;;;;;16.58;5.10;;;6.60;99.90;;;;;;5053716;28;20113;-67
2023/12/27 12:14:49;;;;;;;17.10;4.72;;;6.60;99.90;;;;;;5068168;28;20272;-69
2023/12/27 12:17:15;;;;;;;15.57;5.28;;;6.50;99.90;;;;;;5070485;28;20072;-67
2023/12/27 12:19:41;;;;;;;14.77;4.78;;;6.50;99.90;;;;;;5069919;28;20541;-68
2023/12/27 12:22:08;;;;;;;26.80;8.23;;;6.50;99.90;;;;;;5081082;28;20052;-67
2023/12/27 12:24:33;;;;;;;18.45;7.00;;;6.40;99.90;;;;;;5050898;28;20056;-68
2023/12/27 12:27:00;;;;;;;16.35;7.60;;;6.40;99.90;;;;;;5051619;28;20075;-68
2023/12/27 12:29:28;;;;;;;17.05;7.40;;;6.40;99.90;;;;;;5050134;28;20382;-69
2023/12/27 12:31:55;;;;;;;25.50;8.57;;;6.20;99.90;;;;;;5050788;28;20514;-68
2023/12/27 12:34:25;;;;;;;20.20;8.70;;;6.40;99.90;;;;;;5034649;28;20444;-68
2023/12/27 12:36:52;;;;;;;28.40;10.23;;;6.20;99.90;;;;;;5018465;28;20498;-68
2023/12/27 12:39:21;;;;;;;23.85;10.65;;;6.20;99.90;;;;;;5050654;28;20041;-68
2023/12/27 12:41:47;;;;;;;30.33;10.63;;;6.30;99.90;;;;;;5033810;28;20410;-68
2023/12/27 12:44:13;;;;;;;22.33;10.43;;;6.20;99.90;;;;;;5034091;28;20047;-68